createdAt,value
2022-12-04T00:00:23.491Z,-0.31
2022-12-04T00:01:23.483Z,-0.32
2022-12-04T00:02:23.463Z,-0.29
2022-12-04T00:03:23.604Z,-0.35
2022-12-04T00:04:23.493Z,-0.34
2022-12-04T00:05:23.419Z,-0.31
2022-12-04T00:06:23.405Z,-0.31
2022-12-04T00:07:23.399Z,-0.34
2022-12-04T00:08:23.389Z,-0.31
2022-12-04T00:09:23.383Z,-0.26
2022-12-04T00:10:23.361Z,-0.21
2022-12-04T00:11:23.347Z,-0.23
2022-12-04T00:12:23.330Z,-0.25
2022-12-04T00:13:23.318Z,-0.25
2022-12-04T00:14:23.303Z,-0.17
2022-12-04T00:15:25.669Z,-0.21
2022-12-04T00:16:23.389Z,-0.17
2022-12-04T00:17:23.277Z,-0.18
2022-12-04T00:18:23.259Z,-0.17
2022-12-04T00:19:23.249Z,-0.13
2022-12-04T00:20:23.265Z,-0.11
2022-12-04T00:21:23.221Z,-0.14
2022-12-04T00:22:23.211Z,-0.10
2022-12-04T00:23:23.189Z,-0.20
2022-12-04T00:24:23.175Z,-0.15
2022-12-04T00:25:23.162Z,-0.17
2022-12-04T00:26:23.156Z,-0.15
2022-12-04T00:27:23.137Z,-0.11
2022-12-04T00:28:23.123Z,-0.13
2022-12-04T00:29:23.110Z,-0.10
2022-12-04T00:30:23.097Z,-0.08
2022-12-04T00:31:23.119Z,-0.03
2022-12-04T00:32:23.077Z,-0.07
2022-12-04T00:33:23.059Z,-0.10
2022-12-04T00:34:23.056Z,-0.07
2022-12-04T00:35:23.033Z,-0.07
2022-12-04T00:36:23.045Z,-0.03
2022-12-04T00:37:23.005Z,-0.10
2022-12-04T00:38:22.999Z,-0.18
2022-12-04T00:39:22.992Z,-0.18
2022-12-04T00:40:22.980Z,-0.17
2022-12-04T00:41:22.958Z,-0.25
2022-12-04T00:42:22.946Z,-0.15
2022-12-04T00:43:22.938Z,-0.15
2022-12-04T00:44:22.927Z,-0.11
2022-12-04T00:45:22.997Z,-0.13
2022-12-04T00:46:23.038Z,-0.11
2022-12-04T00:47:22.884Z,-0.07
2022-12-04T00:48:22.869Z,-0.07
2022-12-04T00:49:22.863Z,-0.02
2022-12-04T00:50:22.840Z,-0.06
2022-12-04T00:51:22.832Z,-0.14
2022-12-04T00:52:22.848Z,-0.14
2022-12-04T00:53:22.814Z,-0.17
2022-12-04T00:54:22.793Z,-0.17
2022-12-04T00:55:22.793Z,-0.15
2022-12-04T00:56:22.773Z,-0.11
2022-12-04T00:57:22.754Z,-0.17
2022-12-04T00:58:22.759Z,-0.14
2022-12-04T00:59:22.744Z,-0.13
2022-12-04T01:00:22.721Z,-0.13
2022-12-04T01:01:22.806Z,-0.06
2022-12-04T01:02:22.699Z,-0.03
2022-12-04T01:03:22.762Z,-0.07
2022-12-04T01:04:22.670Z,-0.07
2022-12-04T01:05:22.658Z,-0.07
2022-12-04T01:06:22.676Z,0.01
2022-12-04T01:07:22.636Z,-0.06
2022-12-04T01:08:22.614Z,-0.06
2022-12-04T01:09:22.608Z,-0.14
2022-12-04T01:10:22.593Z,-0.13
2022-12-04T01:11:22.576Z,-0.11
2022-12-04T01:12:22.594Z,-0.17
2022-12-04T01:13:22.556Z,-0.10
2022-12-04T01:14:22.552Z,-0.10
2022-12-04T01:15:22.526Z,-0.08
2022-12-04T01:16:22.557Z,-0.13
2022-12-04T01:17:22.508Z,-0.11
2022-12-04T01:18:22.486Z,-0.06
2022-12-04T01:19:22.473Z,-0.11
2022-12-04T01:20:22.468Z,-0.08
2022-12-04T01:21:22.451Z,-0.06
2022-12-04T01:22:22.437Z,-0.06
2022-12-04T01:23:22.435Z,-0.10
2022-12-04T01:24:22.409Z,-0.06
2022-12-04T01:25:22.404Z,-0.10
2022-12-04T01:26:22.392Z,-0.08
2022-12-04T01:27:22.375Z,-0.08
2022-12-04T01:28:22.390Z,-0.07
2022-12-04T01:29:22.344Z,-0.13
2022-12-04T01:30:22.330Z,-0.14
2022-12-04T01:31:22.426Z,-0.17
2022-12-04T01:32:22.312Z,-0.15
2022-12-04T01:33:22.299Z,-0.15
2022-12-04T01:34:22.287Z,-0.14
2022-12-04T01:35:22.267Z,-0.13
2022-12-04T01:36:22.259Z,-0.15
2022-12-04T01:37:22.243Z,-0.14
2022-12-04T01:38:22.231Z,-0.11
2022-12-04T01:39:22.224Z,-0.14
2022-12-04T01:40:22.225Z,-0.14
2022-12-04T01:41:22.202Z,-0.15
2022-12-04T01:42:22.186Z,-0.23
2022-12-04T01:43:22.186Z,-0.23
2022-12-04T01:44:22.191Z,-0.20
2022-12-04T01:45:22.151Z,-0.15
2022-12-04T01:46:22.203Z,-0.17
2022-12-04T01:47:22.114Z,-0.13
2022-12-04T01:48:22.106Z,-0.08
2022-12-04T01:49:22.088Z,-0.06
2022-12-04T01:50:22.088Z,-0.10
2022-12-04T01:51:22.067Z,-0.07
2022-12-04T01:52:22.057Z,-0.03
2022-12-04T01:53:22.045Z,-0.03
2022-12-04T01:54:22.035Z,-0.03
2022-12-04T01:55:22.022Z,-0.07
2022-12-04T01:56:22.007Z,0.00
2022-12-04T01:57:21.993Z,-0.03
2022-12-04T01:58:21.974Z,-0.02
2022-12-04T01:59:21.973Z,-0.02
2022-12-04T02:00:21.981Z,-0.02
2022-12-04T02:01:22.075Z,-0.02
2022-12-04T02:02:22.093Z,-0.06
2022-12-04T02:03:21.920Z,-0.10
2022-12-04T02:04:21.903Z,-0.18
2022-12-04T02:05:21.890Z,-0.17
2022-12-04T02:06:21.877Z,-0.17
2022-12-04T02:07:21.860Z,-0.20
2022-12-04T02:08:21.914Z,-0.20
2022-12-04T02:09:26.517Z,-0.23
2022-12-04T02:10:21.820Z,-0.20
2022-12-04T02:11:21.816Z,-0.21
2022-12-04T02:12:21.795Z,-0.23
2022-12-04T02:13:21.791Z,-0.20
2022-12-04T02:14:21.769Z,-0.17
2022-12-04T02:15:21.761Z,-0.17
2022-12-04T02:16:21.805Z,-0.13
2022-12-04T02:17:21.739Z,-0.14
2022-12-04T02:18:21.726Z,-0.10
2022-12-04T02:19:21.707Z,-0.07
2022-12-04T02:20:21.701Z,-0.11
2022-12-04T02:21:21.691Z,-0.11
2022-12-04T02:22:21.669Z,-0.03
2022-12-04T02:23:21.658Z,-0.08
2022-12-04T02:24:21.646Z,-0.06
2022-12-04T02:25:21.627Z,-0.03
2022-12-04T02:26:21.624Z,-0.02
2022-12-04T02:27:21.605Z,-0.06
2022-12-04T02:28:21.598Z,0.00
2022-12-04T02:29:21.580Z,0.01
2022-12-04T02:30:21.649Z,-0.02
2022-12-04T02:31:21.675Z,0.05
2022-12-04T02:32:21.571Z,0.10
2022-12-04T02:33:21.539Z,0.03
2022-12-04T02:34:21.513Z,0.03
2022-12-04T02:35:21.506Z,0.00
2022-12-04T02:36:21.491Z,0.01
2022-12-04T02:37:21.481Z,0.01
2022-12-04T02:38:21.461Z,0.03
2022-12-04T02:39:21.461Z,0.03
2022-12-04T02:40:21.436Z,0.00
2022-12-04T02:41:21.427Z,0.00
2022-12-04T02:42:21.410Z,-0.02
2022-12-04T02:43:21.400Z,0.00
2022-12-04T02:44:21.385Z,-0.03
2022-12-04T02:45:21.382Z,-0.03
2022-12-04T02:46:21.437Z,-0.06
2022-12-04T02:47:21.349Z,0.01
2022-12-04T02:48:21.375Z,-0.06
2022-12-04T02:49:21.322Z,-0.06
2022-12-04T02:50:21.310Z,-0.03
2022-12-04T02:51:21.298Z,-0.02
2022-12-04T02:52:21.286Z,-0.03
2022-12-04T02:53:21.271Z,-0.08
2022-12-04T02:54:21.264Z,-0.08
2022-12-04T02:55:21.253Z,-0.08
2022-12-04T02:56:21.239Z,-0.10
2022-12-04T02:57:21.220Z,-0.07
2022-12-04T02:58:21.214Z,-0.07
2022-12-04T02:59:21.201Z,-0.07
2022-12-04T03:00:21.182Z,-0.06
2022-12-04T03:01:21.303Z,-0.07
2022-12-04T03:02:21.203Z,-0.02
2022-12-04T03:03:21.152Z,-0.03
2022-12-04T03:04:21.163Z,0.01
2022-12-04T03:05:21.119Z,-0.06
2022-12-04T03:06:21.114Z,-0.03
2022-12-04T03:07:21.093Z,-0.02
2022-12-04T03:08:21.090Z,-0.02
2022-12-04T03:09:21.071Z,-0.03
2022-12-04T03:10:21.060Z,-0.03
2022-12-04T03:11:21.048Z,0.00
2022-12-04T03:12:21.037Z,0.01
2022-12-04T03:13:21.023Z,-0.02
2022-12-04T03:14:21.004Z,-0.02
2022-12-04T03:15:20.998Z,-0.03
2022-12-04T03:16:21.056Z,-0.03
2022-12-04T03:17:20.972Z,0.00
2022-12-04T03:18:20.951Z,-0.07
2022-12-04T03:19:20.944Z,0.00
2022-12-04T03:20:20.955Z,0.00
2022-12-04T03:21:20.923Z,-0.10
2022-12-04T03:22:20.907Z,-0.03
2022-12-04T03:23:20.888Z,-0.06
2022-12-04T03:24:20.878Z,-0.07
2022-12-04T03:25:20.866Z,-0.07
2022-12-04T03:26:20.855Z,-0.08
2022-12-04T03:27:20.838Z,-0.08
2022-12-04T03:28:20.833Z,-0.14
2022-12-04T03:29:20.813Z,-0.13
2022-12-04T03:30:20.801Z,-0.14
2022-12-04T03:31:20.841Z,-0.20
2022-12-04T03:32:20.779Z,-0.14
2022-12-04T03:33:20.769Z,-0.21
2022-12-04T03:34:20.755Z,-0.18
2022-12-04T03:35:20.745Z,-0.17
2022-12-04T03:36:20.757Z,-0.14
2022-12-04T03:37:20.707Z,-0.20
2022-12-04T03:38:20.694Z,-0.15
2022-12-04T03:39:20.685Z,-0.08
2022-12-04T03:40:20.671Z,-0.11
2022-12-04T03:41:20.657Z,-0.17
2022-12-04T03:42:20.645Z,-0.14
2022-12-04T03:43:20.634Z,-0.15
2022-12-04T03:44:20.623Z,-0.20
2022-12-04T03:45:20.608Z,-0.26
2022-12-04T03:46:20.680Z,-0.26
2022-12-04T03:47:20.582Z,-0.31
2022-12-04T03:48:23.128Z,-0.32
2022-12-04T03:49:20.563Z,-0.31
2022-12-04T03:50:20.547Z,-0.29
2022-12-04T03:51:20.531Z,-0.32
2022-12-04T03:52:20.554Z,-0.35
2022-12-04T03:53:20.507Z,-0.38
2022-12-04T03:54:20.491Z,-0.43
2022-12-04T03:55:20.485Z,-0.49
2022-12-04T03:56:20.465Z,-0.49
2022-12-04T03:57:20.453Z,-0.50
2022-12-04T03:58:20.441Z,-0.59
2022-12-04T03:59:20.428Z,-0.52
2022-12-04T04:00:20.414Z,-0.47
2022-12-04T04:01:20.544Z,-0.54
2022-12-04T04:02:20.447Z,-0.49
2022-12-04T04:03:20.389Z,-0.49
2022-12-04T04:04:20.367Z,-0.44
2022-12-04T04:05:20.359Z,-0.38
2022-12-04T04:06:20.349Z,-0.44
2022-12-04T04:07:20.332Z,-0.41
2022-12-04T04:08:20.461Z,-0.39
2022-12-04T04:09:20.299Z,-0.38
2022-12-04T04:10:20.293Z,-0.41
2022-12-04T04:11:20.282Z,-0.36
2022-12-04T04:12:20.267Z,-0.41
2022-12-04T04:13:20.255Z,-0.43
2022-12-04T04:14:20.245Z,-0.47
2022-12-04T04:15:20.232Z,-0.44
2022-12-04T04:16:20.299Z,-0.41
2022-12-04T04:17:20.202Z,-0.43
2022-12-04T04:18:20.185Z,-0.38
2022-12-04T04:19:20.182Z,-0.36
2022-12-04T04:20:20.159Z,-0.38
2022-12-04T04:21:20.147Z,-0.36
2022-12-04T04:22:20.143Z,-0.38
2022-12-04T04:23:20.122Z,-0.31
2022-12-04T04:24:20.143Z,-0.31
2022-12-04T04:25:20.096Z,-0.34
2022-12-04T04:26:20.091Z,-0.36
2022-12-04T04:27:20.069Z,-0.32
2022-12-04T04:28:20.063Z,-0.29
2022-12-04T04:29:20.045Z,-0.35
2022-12-04T04:30:20.031Z,-0.36
2022-12-04T04:31:20.087Z,-0.32
2022-12-04T04:32:20.014Z,-0.31
2022-12-04T04:33:19.991Z,-0.31
2022-12-04T04:34:19.988Z,-0.29
2022-12-04T04:35:19.970Z,-0.28
2022-12-04T04:36:19.960Z,-0.29
2022-12-04T04:37:19.943Z,-0.29
2022-12-04T04:38:19.931Z,-0.20
2022-12-04T04:39:19.915Z,-0.25
2022-12-04T04:40:19.939Z,-0.28
2022-12-04T04:41:19.893Z,-0.31
2022-12-04T04:42:19.880Z,-0.31
2022-12-04T04:43:19.867Z,-0.29
2022-12-04T04:44:19.855Z,-0.34
2022-12-04T04:45:19.844Z,-0.34
2022-12-04T04:46:19.935Z,-0.34
2022-12-04T04:47:19.823Z,-0.25
2022-12-04T04:48:19.809Z,-0.25
2022-12-04T04:49:19.796Z,-0.29
2022-12-04T04:50:19.782Z,-0.23
2022-12-04T04:51:19.774Z,-0.23
2022-12-04T04:52:19.754Z,-0.29
2022-12-04T04:53:19.745Z,-0.34
2022-12-04T04:54:19.726Z,-0.32
2022-12-04T04:55:19.714Z,-0.32
2022-12-04T04:56:19.738Z,-0.34
2022-12-04T04:57:19.688Z,-0.29
2022-12-04T04:58:19.674Z,-0.25
2022-12-04T04:59:19.667Z,-0.29
2022-12-04T05:00:19.652Z,-0.25
2022-12-04T05:01:19.689Z,-0.26
2022-12-04T05:02:19.632Z,-0.28
2022-12-04T05:03:19.665Z,-0.28
2022-12-04T05:04:19.597Z,-0.28
2022-12-04T05:05:19.588Z,-0.31
2022-12-04T05:06:19.573Z,-0.23
2022-12-04T05:07:19.558Z,-0.25
2022-12-04T05:08:19.645Z,-0.20
2022-12-04T05:09:19.533Z,-0.23
2022-12-04T05:10:19.523Z,-0.20
2022-12-04T05:11:19.517Z,-0.23
2022-12-04T05:12:19.528Z,-0.17
2022-12-04T05:13:19.481Z,-0.18
2022-12-04T05:14:19.475Z,-0.17
2022-12-04T05:15:19.465Z,-0.17
2022-12-04T05:16:19.544Z,-0.14
2022-12-04T05:17:19.430Z,-0.17
2022-12-04T05:18:19.417Z,-0.18
2022-12-04T05:19:19.405Z,-0.21
2022-12-04T05:20:19.416Z,-0.20
2022-12-04T05:21:19.386Z,-0.17
2022-12-04T05:22:19.364Z,-0.13
2022-12-04T05:23:19.359Z,-0.20
2022-12-04T05:24:19.346Z,-0.17
2022-12-04T05:25:19.331Z,-0.17
2022-12-04T05:26:19.315Z,-0.14
2022-12-04T05:27:19.307Z,-0.20
2022-12-04T05:28:19.318Z,-0.18
2022-12-04T05:29:19.281Z,-0.14
2022-12-04T05:30:19.272Z,-0.18
2022-12-04T05:31:19.340Z,-0.21
2022-12-04T05:32:19.241Z,-0.15
2022-12-04T05:33:19.233Z,-0.25
2022-12-04T05:34:19.215Z,-0.28
2022-12-04T05:35:19.202Z,-0.31
2022-12-04T05:36:19.195Z,-0.28
2022-12-04T05:37:19.185Z,-0.34
2022-12-04T05:38:19.175Z,-0.31
2022-12-04T05:39:19.158Z,-0.25
2022-12-04T05:40:19.140Z,-0.29
2022-12-04T05:41:19.124Z,-0.28
2022-12-04T05:42:19.120Z,-0.20
2022-12-04T05:43:19.104Z,-0.21
2022-12-04T05:44:19.113Z,-0.18
2022-12-04T05:45:19.084Z,-0.25
2022-12-04T05:46:19.105Z,-0.15
2022-12-04T05:47:19.059Z,-0.13
2022-12-04T05:48:19.044Z,-0.18
2022-12-04T05:49:19.026Z,-0.11
2022-12-04T05:50:19.015Z,-0.13
2022-12-04T05:51:18.993Z,-0.13
2022-12-04T05:52:18.988Z,-0.11
2022-12-04T05:53:18.971Z,-0.11
2022-12-04T05:54:18.968Z,-0.08
2022-12-04T05:55:18.950Z,-0.11
2022-12-04T05:56:18.938Z,-0.17
2022-12-04T05:57:18.919Z,-0.21
2022-12-04T05:58:18.914Z,-0.17
2022-12-04T05:59:18.896Z,-0.18
2022-12-04T06:00:18.912Z,-0.20
2022-12-04T06:01:18.882Z,-0.26
2022-12-04T06:02:18.919Z,-0.25
2022-12-04T06:03:18.915Z,-0.21
2022-12-04T06:04:18.832Z,-0.18
2022-12-04T06:05:18.818Z,-0.20
2022-12-04T06:06:21.944Z,-0.17
2022-12-04T06:07:18.800Z,-0.21
2022-12-04T06:08:18.906Z,-0.17
2022-12-04T06:09:18.770Z,-0.20
2022-12-04T06:10:18.751Z,-0.13
2022-12-04T06:11:18.743Z,-0.25
2022-12-04T06:12:18.735Z,-0.28
2022-12-04T06:13:18.719Z,-0.31
2022-12-04T06:14:18.699Z,-0.28
2022-12-04T06:15:18.691Z,-0.23
2022-12-04T06:16:18.785Z,-0.21
2022-12-04T06:17:18.663Z,-0.20
2022-12-04T06:18:18.659Z,-0.18
2022-12-04T06:19:18.647Z,-0.13
2022-12-04T06:20:18.658Z,-0.14
2022-12-04T06:21:18.614Z,-0.13
2022-12-04T06:22:18.608Z,-0.13
2022-12-04T06:23:18.591Z,-0.10
2022-12-04T06:24:18.576Z,-0.14
2022-12-04T06:25:18.564Z,-0.18
2022-12-04T06:26:18.551Z,-0.20
2022-12-04T06:27:27.763Z,-0.17
2022-12-04T06:28:19.557Z,-0.15
2022-12-04T06:29:18.520Z,-0.17
2022-12-04T06:30:18.524Z,-0.21
2022-12-04T06:31:18.644Z,-0.21
2022-12-04T06:32:21.715Z,-0.15
2022-12-04T06:33:18.467Z,-0.21
2022-12-04T06:34:18.447Z,-0.18
2022-12-04T06:35:18.433Z,-0.23
2022-12-04T06:36:18.426Z,-0.21
2022-12-04T06:37:18.408Z,-0.25
2022-12-04T06:38:18.396Z,-0.21
2022-12-04T06:39:19.097Z,-0.17
2022-12-04T06:40:18.370Z,-0.20
2022-12-04T06:41:18.363Z,-0.14
2022-12-04T06:42:18.346Z,-0.15
2022-12-04T06:43:18.338Z,-0.20
2022-12-04T06:44:18.323Z,-0.11
2022-12-04T06:45:18.315Z,-0.21
2022-12-04T06:46:18.381Z,-0.20
2022-12-04T06:47:18.279Z,-0.18
2022-12-04T06:48:18.300Z,-0.17
2022-12-04T06:49:18.261Z,-0.25
2022-12-04T06:50:18.253Z,-0.25
2022-12-04T06:51:18.233Z,-0.20
2022-12-04T06:52:18.216Z,-0.21
2022-12-04T06:53:18.204Z,-0.15
2022-12-04T06:54:18.193Z,-0.18
2022-12-04T06:55:18.180Z,-0.13
2022-12-04T06:56:18.214Z,-0.13
2022-12-04T06:57:18.167Z,-0.08
2022-12-04T06:58:18.145Z,-0.08
2022-12-04T06:59:18.132Z,-0.06
2022-12-04T07:00:18.122Z,-0.10
2022-12-04T07:01:18.185Z,-0.02
2022-12-04T07:02:18.127Z,0.03
2022-12-04T07:03:18.084Z,0.01
2022-12-04T07:04:18.103Z,0.00
2022-12-04T07:05:18.062Z,-0.06
2022-12-04T07:06:18.042Z,-0.08
2022-12-04T07:07:18.027Z,-0.06
2022-12-04T07:08:18.094Z,-0.06
2022-12-04T07:09:18.008Z,-0.02
2022-12-04T07:10:17.987Z,-0.06
2022-12-04T07:11:17.975Z,-0.06
2022-12-04T07:12:17.980Z,0.00
2022-12-04T07:13:17.956Z,-0.06
2022-12-04T07:14:17.949Z,-0.03
2022-12-04T07:15:17.930Z,-0.07
2022-12-04T07:16:17.944Z,-0.10
2022-12-04T07:17:17.977Z,-0.14
2022-12-04T07:18:17.885Z,-0.14
2022-12-04T07:19:17.893Z,-0.06
2022-12-04T07:20:17.893Z,-0.02
2022-12-04T07:21:17.854Z,-0.08
2022-12-04T07:22:17.840Z,0.05
2022-12-04T07:23:17.823Z,-0.02
2022-12-04T07:24:17.830Z,0.01
2022-12-04T07:25:17.797Z,0.05
2022-12-04T07:26:17.784Z,0.01
2022-12-04T07:27:17.775Z,0.01
2022-12-04T07:28:17.766Z,0.00
2022-12-04T07:29:17.754Z,-0.07
2022-12-04T07:30:17.735Z,-0.02
2022-12-04T07:31:17.755Z,0.00
2022-12-04T07:32:17.775Z,-0.02
2022-12-04T07:33:17.698Z,0.00
2022-12-04T07:34:17.678Z,-0.02
2022-12-04T07:35:17.672Z,-0.07
2022-12-04T07:36:17.692Z,-0.08
2022-12-04T07:37:17.646Z,-0.07
2022-12-04T07:38:17.628Z,-0.07
2022-12-04T07:39:17.624Z,-0.07
2022-12-04T07:40:17.602Z,0.00
2022-12-04T07:41:17.604Z,-0.02
2022-12-04T07:42:23.829Z,0.05
2022-12-04T07:43:18.604Z,-0.02
2022-12-04T07:44:17.550Z,0.00
2022-12-04T07:45:17.544Z,-0.02
2022-12-04T07:46:17.606Z,0.04
2022-12-04T07:47:17.521Z,0.07
2022-12-04T07:48:17.506Z,0.08
2022-12-04T07:49:17.485Z,0.11
2022-12-04T07:50:17.472Z,0.10
2022-12-04T07:51:17.461Z,0.12
2022-12-04T07:52:17.477Z,0.15
2022-12-04T07:53:17.440Z,0.15
2022-12-04T07:54:17.419Z,0.12
2022-12-04T07:55:22.801Z,0.22
2022-12-04T07:56:17.403Z,0.18
2022-12-04T07:57:17.387Z,0.19
2022-12-04T07:58:17.376Z,0.21
2022-12-04T07:59:17.353Z,0.18
2022-12-04T08:00:17.348Z,0.19
2022-12-04T08:01:17.510Z,0.21
2022-12-04T08:02:17.324Z,0.18
2022-12-04T08:03:17.304Z,0.26
2022-12-04T08:04:17.366Z,0.28
2022-12-04T08:05:17.279Z,0.37
2022-12-04T08:06:17.284Z,0.29
2022-12-04T08:07:17.259Z,0.28
2022-12-04T08:08:17.410Z,0.26
2022-12-04T08:09:17.234Z,0.26
2022-12-04T08:10:17.221Z,0.21
2022-12-04T08:11:17.203Z,0.21
2022-12-04T08:12:17.189Z,0.19
2022-12-04T08:13:17.178Z,0.25
2022-12-04T08:14:17.163Z,0.19
2022-12-04T08:15:17.157Z,0.21
2022-12-04T08:16:17.207Z,0.22
2022-12-04T08:17:17.231Z,0.15
2022-12-04T08:18:17.111Z,0.19
2022-12-04T08:19:17.105Z,0.21
2022-12-04T08:20:17.092Z,0.19
2022-12-04T08:21:17.072Z,0.26
2022-12-04T08:22:20.474Z,0.25
2022-12-04T08:23:18.089Z,0.25
2022-12-04T08:24:17.070Z,0.26
2022-12-04T08:25:17.032Z,0.26
2022-12-04T08:26:17.016Z,0.25
2022-12-04T08:27:17.006Z,0.26
2022-12-04T08:28:16.995Z,0.31
2022-12-04T08:29:16.972Z,0.32
2022-12-04T08:30:16.960Z,0.32
2022-12-04T08:31:17.046Z,0.22
2022-12-04T08:32:16.942Z,0.25
2022-12-04T08:33:16.922Z,0.25
2022-12-04T08:34:16.912Z,0.25
2022-12-04T08:35:16.901Z,0.28
2022-12-04T08:36:16.890Z,0.32
2022-12-04T08:37:16.877Z,0.34
2022-12-04T08:38:16.855Z,0.31
2022-12-04T08:39:16.849Z,0.37
2022-12-04T08:40:16.864Z,0.39
2022-12-04T08:41:16.829Z,0.36
2022-12-04T08:42:16.814Z,0.36
2022-12-04T08:43:16.794Z,0.36
2022-12-04T08:44:16.790Z,0.32
2022-12-04T08:45:16.761Z,0.34
2022-12-04T08:46:16.855Z,0.39
2022-12-04T08:47:16.735Z,0.41
2022-12-04T08:48:16.722Z,0.37
2022-12-04T08:49:16.708Z,0.40
2022-12-04T08:50:16.709Z,0.44
2022-12-04T08:51:16.689Z,0.46
2022-12-04T08:52:16.671Z,0.46
2022-12-04T08:53:16.663Z,0.49
2022-12-04T08:54:16.648Z,0.55
2022-12-04T08:55:16.639Z,0.50
2022-12-04T08:56:16.776Z,0.52
2022-12-04T08:57:16.617Z,0.52
2022-12-04T08:58:16.593Z,0.58
2022-12-04T08:59:16.588Z,0.52
2022-12-04T09:00:16.569Z,0.60
2022-12-04T09:01:16.617Z,0.58
2022-12-04T09:02:16.548Z,0.59
2022-12-04T09:03:16.542Z,0.60
2022-12-04T09:04:16.618Z,0.65
2022-12-04T09:05:16.509Z,0.59
2022-12-04T09:06:16.519Z,0.60
2022-12-04T09:07:16.476Z,0.60
2022-12-04T09:08:16.513Z,0.60
2022-12-04T09:09:16.451Z,0.65
2022-12-04T09:10:16.449Z,0.63
2022-12-04T09:11:16.432Z,0.60
2022-12-04T09:12:16.453Z,0.60
2022-12-04T09:13:16.400Z,0.58
2022-12-04T09:14:16.386Z,0.59
2022-12-04T09:15:16.383Z,0.60
2022-12-04T09:16:16.474Z,0.59
2022-12-04T09:17:16.354Z,0.65
2022-12-04T09:18:16.341Z,0.63
2022-12-04T09:19:16.321Z,0.66
2022-12-04T09:20:16.315Z,0.68
2022-12-04T09:21:16.295Z,0.63
2022-12-04T09:22:16.287Z,0.73
2022-12-04T09:23:16.274Z,0.70
2022-12-04T09:24:16.259Z,0.68
2022-12-04T09:25:16.255Z,0.62
2022-12-04T09:26:16.245Z,0.68
2022-12-04T09:27:16.226Z,0.66
2022-12-04T09:28:16.241Z,0.73
2022-12-04T09:29:16.206Z,0.66
2022-12-04T09:30:16.183Z,0.63
2022-12-04T09:31:16.255Z,0.68
2022-12-04T09:32:16.162Z,0.69
2022-12-04T09:33:16.149Z,0.70
2022-12-04T09:34:16.148Z,0.66
2022-12-04T09:35:16.115Z,0.66
2022-12-04T09:36:16.198Z,0.69
2022-12-04T09:37:16.090Z,0.73
2022-12-04T09:38:16.088Z,0.70
2022-12-04T09:39:16.070Z,0.73
2022-12-04T09:40:16.058Z,0.77
2022-12-04T09:41:16.038Z,0.76
2022-12-04T09:42:16.034Z,0.73
2022-12-04T09:43:16.023Z,0.69
2022-12-04T09:44:16.029Z,0.59
2022-12-04T09:45:15.988Z,0.59
2022-12-04T09:46:16.065Z,0.56
2022-12-04T09:47:15.966Z,0.56
2022-12-04T09:48:15.959Z,0.56
2022-12-04T09:49:15.936Z,0.52
2022-12-04T09:50:15.930Z,0.47
2022-12-04T09:51:15.910Z,0.52
2022-12-04T09:52:21.607Z,0.49
2022-12-04T09:53:16.929Z,0.49
2022-12-04T09:54:15.881Z,0.49
2022-12-04T09:55:15.865Z,0.56
2022-12-04T09:56:15.852Z,0.58
2022-12-04T09:57:15.832Z,0.52
2022-12-04T09:58:15.823Z,0.52
2022-12-04T09:59:15.820Z,0.52
2022-12-04T10:00:15.858Z,0.56
2022-12-04T10:01:15.799Z,0.62
2022-12-04T10:02:15.872Z,0.56
2022-12-04T10:03:15.916Z,0.59
2022-12-04T10:04:15.887Z,0.58
2022-12-04T10:05:15.743Z,0.59
2022-12-04T10:06:15.728Z,0.56
2022-12-04T10:07:15.709Z,0.60
2022-12-04T10:08:15.751Z,0.59
2022-12-04T10:09:15.687Z,0.65
2022-12-04T10:10:15.679Z,0.65
2022-12-04T10:11:15.665Z,0.69
2022-12-04T10:12:15.649Z,0.70
2022-12-04T10:13:15.641Z,0.73
2022-12-04T10:14:15.618Z,0.74
2022-12-04T10:15:15.611Z,0.81
2022-12-04T10:16:15.679Z,0.81
2022-12-04T10:17:15.579Z,0.80
2022-12-04T10:18:15.578Z,0.76
2022-12-04T10:19:15.557Z,0.81
2022-12-04T10:20:15.545Z,0.77
2022-12-04T10:21:15.534Z,0.70
2022-12-04T10:22:15.527Z,0.65
2022-12-04T10:23:15.509Z,0.63
2022-12-04T10:24:15.492Z,0.66
2022-12-04T10:25:15.483Z,0.65
2022-12-04T10:26:15.471Z,0.66
2022-12-04T10:27:15.453Z,0.70
2022-12-04T10:28:15.438Z,0.68
2022-12-04T10:29:15.431Z,0.69
2022-12-04T10:30:15.429Z,0.65
2022-12-04T10:31:15.548Z,0.73
2022-12-04T10:32:15.434Z,0.76
2022-12-04T10:33:15.393Z,0.80
2022-12-04T10:34:15.383Z,0.83
2022-12-04T10:35:15.348Z,0.86
2022-12-04T10:36:15.352Z,0.87
2022-12-04T10:37:15.321Z,0.91
2022-12-04T10:38:15.311Z,0.95
2022-12-04T10:39:15.312Z,0.95
2022-12-04T10:40:15.298Z,1.02
2022-12-04T10:41:15.524Z,1.05
2022-12-04T10:42:15.278Z,1.10
2022-12-04T10:43:15.249Z,1.14
2022-12-04T10:44:15.243Z,1.13
2022-12-04T10:45:15.238Z,1.13
2022-12-04T10:46:15.296Z,1.16
2022-12-04T10:47:15.248Z,1.12
2022-12-04T10:48:15.215Z,1.19
2022-12-04T10:49:15.189Z,1.14
2022-12-04T10:50:15.161Z,1.17
2022-12-04T10:51:15.159Z,1.14
2022-12-04T10:52:15.133Z,1.14
2022-12-04T10:53:15.120Z,1.14
2022-12-04T10:54:15.113Z,1.13
2022-12-04T10:55:15.104Z,1.12
2022-12-04T10:56:15.086Z,1.10
2022-12-04T10:57:21.081Z,1.12
2022-12-04T10:58:15.056Z,1.04
2022-12-04T10:59:15.042Z,1.08
2022-12-04T11:00:15.026Z,1.12
2022-12-04T11:01:15.026Z,1.02
2022-12-04T11:02:15.093Z,1.08
2022-12-04T11:03:15.055Z,0.95
2022-12-04T11:04:15.013Z,0.88
2022-12-04T11:05:14.961Z,0.88
2022-12-04T11:06:14.952Z,0.92
2022-12-04T11:07:14.949Z,0.88
2022-12-04T11:08:19.731Z,0.92
2022-12-04T11:09:14.916Z,0.95
2022-12-04T11:10:14.953Z,0.95
2022-12-04T11:11:15.087Z,0.98
2022-12-04T11:12:15.077Z,1.06
2022-12-04T11:13:14.861Z,1.10
2022-12-04T11:14:14.847Z,1.13
2022-12-04T11:15:14.849Z,1.14
2022-12-04T11:16:14.945Z,1.13
2022-12-04T11:17:14.809Z,1.12
2022-12-04T11:18:14.806Z,1.16
2022-12-04T11:19:15.463Z,1.17
2022-12-04T11:20:14.799Z,1.22
2022-12-04T11:21:14.758Z,1.26
2022-12-04T11:22:14.755Z,1.30
2022-12-04T11:24:34.526Z,1.34
2022-12-04T11:25:34.512Z,1.34
2022-12-04T11:26:34.497Z,1.34
2022-12-04T11:27:34.483Z,1.37
2022-12-04T11:28:41.599Z,1.40
2022-12-04T11:29:35.490Z,1.42
2022-12-04T11:30:34.442Z,1.48
2022-12-04T11:31:34.481Z,1.53
2022-12-04T11:32:34.429Z,1.52
2022-12-04T11:33:34.441Z,1.52
2022-12-04T11:34:34.390Z,1.53
2022-12-04T11:35:34.408Z,1.58
2022-12-04T11:36:34.370Z,1.58
2022-12-04T11:37:34.363Z,1.62
2022-12-04T11:38:34.339Z,1.66
2022-12-04T11:39:34.335Z,1.67
2022-12-04T11:40:34.323Z,1.68
2022-12-04T11:41:34.326Z,1.71
2022-12-04T11:42:34.494Z,1.68
2022-12-04T11:43:34.280Z,1.58
2022-12-04T11:44:34.269Z,1.50
2022-12-04T11:45:34.249Z,1.53
2022-12-04T11:46:34.467Z,1.59
2022-12-04T11:47:34.225Z,1.62
2022-12-04T11:48:34.217Z,1.66
2022-12-04T11:49:34.200Z,1.71
2022-12-04T11:50:34.182Z,1.67
2022-12-04T11:51:34.212Z,1.66
2022-12-04T11:52:34.167Z,1.59
2022-12-04T11:53:34.160Z,1.56
2022-12-04T11:54:34.141Z,1.59
2022-12-04T11:55:34.122Z,1.59
2022-12-04T11:56:34.115Z,1.63
2022-12-04T11:57:34.091Z,1.68
2022-12-04T11:58:34.091Z,1.71
2022-12-04T11:59:34.079Z,1.76
2022-12-04T12:00:34.058Z,1.84
2022-12-04T12:01:34.091Z,1.71
2022-12-04T12:02:34.142Z,1.73
2022-12-04T12:03:34.115Z,1.73
2022-12-04T12:04:34.005Z,1.81
2022-12-04T12:05:33.994Z,1.85
2022-12-04T12:06:33.976Z,1.91
2022-12-04T12:07:34.023Z,1.97
2022-12-04T12:08:33.956Z,1.95
2022-12-04T12:09:33.945Z,1.92
2022-12-04T12:10:33.925Z,1.97
2022-12-04T12:11:33.911Z,2.04
2022-12-04T12:12:33.909Z,2.04
2022-12-04T12:13:33.892Z,2.13
2022-12-04T12:14:33.873Z,2.14
2022-12-04T12:15:33.878Z,2.15
2022-12-04T12:16:33.919Z,2.15
2022-12-04T12:17:33.835Z,2.11
2022-12-04T12:18:33.822Z,2.14
2022-12-04T12:19:33.819Z,2.17
2022-12-04T12:20:33.800Z,2.17
2022-12-04T12:21:33.795Z,2.17
2022-12-04T12:22:33.780Z,2.20
2022-12-04T12:23:33.802Z,2.13
2022-12-04T12:24:33.746Z,2.25
2022-12-04T12:25:33.743Z,2.10
2022-12-04T12:26:33.724Z,2.08
2022-12-04T12:27:33.719Z,2.02
2022-12-04T12:28:33.697Z,2.02
2022-12-04T12:29:33.694Z,2.06
2022-12-04T12:30:33.680Z,1.99
2022-12-04T12:31:33.697Z,1.99
2022-12-04T12:32:33.647Z,2.04
2022-12-04T12:33:33.640Z,2.10
2022-12-04T12:34:33.619Z,2.07
2022-12-04T12:35:33.613Z,2.02
2022-12-04T12:36:33.598Z,1.99
2022-12-04T12:37:33.586Z,1.94
2022-12-04T12:38:33.574Z,2.02
2022-12-04T12:39:33.588Z,1.92
2022-12-04T12:40:33.542Z,1.89
2022-12-04T12:41:33.544Z,1.89
2022-12-04T12:42:33.523Z,1.91
2022-12-04T12:43:33.589Z,1.94
2022-12-04T12:44:33.497Z,1.99
2022-12-04T12:45:33.521Z,2.00
2022-12-04T12:46:33.512Z,2.07
2022-12-04T12:47:33.451Z,2.08
2022-12-04T12:48:33.549Z,2.10
2022-12-04T12:49:33.433Z,2.08
2022-12-04T12:50:33.417Z,2.08
2022-12-04T12:51:33.410Z,2.08
2022-12-04T12:52:33.389Z,2.14
2022-12-04T12:53:33.386Z,2.08
2022-12-04T12:54:33.358Z,2.10
2022-12-04T12:55:33.387Z,2.14
2022-12-04T12:56:33.338Z,2.10
2022-12-04T12:57:33.324Z,2.14
2022-12-04T12:58:33.312Z,2.10
2022-12-04T12:59:33.303Z,2.06
2022-12-04T13:00:33.292Z,2.06
2022-12-04T13:01:33.414Z,2.13
2022-12-04T13:02:33.402Z,2.11
2022-12-04T13:03:33.259Z,2.11
2022-12-04T13:04:33.246Z,2.11
2022-12-04T13:05:33.223Z,2.14